Time;durP1;ratioP1;P1;durP2;ratioP2;P2;SDS_P1;SDS_P2;PMS_P1;PMS_P2;Temp;Humidity;BMP_temperature;BMP_pressure;BME280_temperature;BME280_humidity;BME280_pressure;Samples;Min_cycle;Max_cycle;Signal;HPM_P1;HPM_P2
2022/07/20 00:00:32;;;;;;;7.15;3.80;;;25.00;49.90;;;;;;5037288;28;20102;-66
2022/07/20 00:03:09;;;;;;;5.55;3.50;;;24.90;49.90;;;;;;5086739;28;20044;-67
2022/07/20 00:05:36;;;;;;;8.32;3.47;;;24.90;49.80;;;;;;5070579;28;20430;-67
2022/07/20 00:08:02;;;;;;;8.10;3.80;;;24.80;50.10;;;;;;5037085;28;20048;-65
2022/07/20 00:13:14;;;;;;;7.82;3.70;;;24.80;50.20;;;;;;5086920;28;20490;-67
2022/07/20 00:15:41;;;;;;;4.95;3.60;;;24.80;50.30;;;;;;5036926;28;20063;-66
2022/07/20 00:18:07;;;;;;;7.18;3.60;;;24.80;50.30;;;;;;5087255;28;20040;-66
2022/07/20 00:20:33;;;;;;;6.60;3.75;;;24.70;50.50;;;;;;5053601;28;20051;-65
2022/07/20 00:22:59;;;;;;;6.47;3.63;;;24.70;50.50;;;;;;5052658;28;20060;-66
2022/07/20 00:25:26;;;;;;;6.20;3.72;;;24.70;50.50;;;;;;5053587;28;20394;-65
2022/07/20 00:27:52;;;;;;;9.25;3.97;;;24.60;50.50;;;;;;5053571;28;20057;-67
2022/07/20 00:30:17;;;;;;;7.90;3.72;;;24.60;51.30;;;;;;5086897;28;20071;-66
2022/07/20 00:32:43;;;;;;;5.53;3.83;;;24.60;50.60;;;;;;5086073;28;20061;-66
2022/07/20 00:35:12;;;;;;;8.07;4.15;;;24.60;50.60;;;;;;5066622;28;20067;-66
2022/07/20 00:37:40;;;;;;;7.70;3.88;;;24.50;50.70;;;;;;5086781;28;20045;-69
2022/07/20 00:40:08;;;;;;;7.45;3.72;;;24.40;50.80;;;;;;5086839;28;20564;-66
2022/07/20 00:42:35;;;;;;;5.38;3.85;;;24.40;51.00;;;;;;5035942;28;20044;-67
2022/07/20 00:45:05;;;;;;;6.18;3.83;;;24.30;51.10;;;;;;5036492;28;20106;-65
2022/07/20 00:47:32;;;;;;;6.15;3.90;;;24.30;51.10;;;;;;5053309;28;20060;-66
2022/07/20 00:49:57;;;;;;;7.18;4.00;;;24.30;51.10;;;;;;5052832;28;20056;-66
2022/07/20 00:52:23;;;;;;;6.03;3.92;;;24.30;51.10;;;;;;5052085;28;20053;-66
2022/07/20 00:54:50;;;;;;;9.00;3.65;;;24.30;51.30;;;;;;5036032;28;20123;-67
2022/07/20 00:57:16;;;;;;;7.65;3.53;;;24.20;51.30;;;;;;5086513;28;20405;-66
2022/07/20 00:59:43;;;;;;;6.78;3.75;;;24.20;51.30;;;;;;5069413;28;20053;-66
2022/07/20 01:02:08;;;;;;;8.73;3.72;;;24.20;51.20;;;;;;5085663;28;20051;-66
2022/07/20 01:04:34;;;;;;;5.70;3.80;;;24.20;51.30;;;;;;5036492;28;20070;-67
2022/07/20 01:07:00;;;;;;;7.40;3.60;;;24.10;51.40;;;;;;5052517;28;20083;-66
2022/07/20 01:09:26;;;;;;;5.75;3.50;;;24.10;51.40;;;;;;5086470;28;20103;-66
2022/07/20 01:11:52;;;;;;;6.95;3.95;;;24.10;51.40;;;;;;5085781;28;20045;-66
2022/07/20 01:14:18;;;;;;;7.53;4.03;;;24.10;51.40;;;;;;5052472;28;20124;-66
2022/07/20 01:16:44;;;;;;;5.18;3.65;;;24.10;51.40;;;;;;5052344;28;20053;-65
2022/07/20 01:19:09;;;;;;;6.93;4.15;;;24.00;51.40;;;;;;5085939;28;20083;-66
2022/07/20 01:21:40;;;;;;;4.25;3.30;;;24.00;51.70;;;;;;5051660;28;20553;-66
2022/07/20 01:24:15;;;;;;;7.07;3.90;;;23.90;51.70;;;;;;5052610;28;20044;-66
2022/07/20 01:26:43;;;;;;;6.50;3.70;;;23.90;51.70;;;;;;5052030;28;20056;-65
2022/07/20 01:29:10;;;;;;;8.05;3.53;;;23.90;51.70;;;;;;5052160;28;20049;-67
2022/07/20 01:31:36;;;;;;;6.97;4.07;;;23.80;51.80;;;;;;5068252;28;20458;-66
2022/07/20 01:34:02;;;;;;;6.80;3.78;;;23.80;51.90;;;;;;5052003;28;20114;-66
2022/07/20 01:36:28;;;;;;;9.77;4.30;;;23.80;52.10;;;;;;5018814;28;20068;-66
2022/07/20 01:38:54;;;;;;;9.15;3.90;;;23.70;52.20;;;;;;5085806;28;20056;-67
2022/07/20 01:41:20;;;;;;;9.10;3.92;;;23.60;52.30;;;;;;5051753;28;20048;-66
2022/07/20 01:43:45;;;;;;;6.18;3.70;;;23.50;52.40;;;;;;5034903;28;20044;-67
2022/07/20 01:46:11;;;;;;;10.80;3.78;;;23.50;52.50;;;;;;5068210;28;20075;-66
2022/07/20 01:48:37;;;;;;;5.75;3.80;;;23.50;52.60;;;;;;5052878;28;20091;-66
2022/07/20 01:51:03;;;;;;;6.97;4.07;;;23.50;52.70;;;;;;5051942;28;20044;-66
2022/07/20 01:53:29;;;;;;;9.52;3.90;;;23.50;52.70;;;;;;5084943;28;20489;-66
2022/07/20 01:55:55;;;;;;;8.45;3.72;;;23.40;52.80;;;;;;5034880;28;20127;-66
2022/07/20 01:58:24;;;;;;;6.35;3.85;;;23.40;52.90;;;;;;5051693;28;20131;-66
2022/07/20 02:00:50;;;;;;;6.95;4.00;;;23.30;53.30;;;;;;5034724;28;20437;-66
2022/07/20 02:03:17;;;;;;;7.43;3.97;;;23.20;53.20;;;;;;5084501;28;20051;-66
2022/07/20 02:05:43;;;;;;;6.30;4.15;;;23.20;53.30;;;;;;5033956;28;20049;-68
2022/07/20 02:08:09;;;;;;;8.38;3.78;;;23.30;53.30;;;;;;5085078;28;20056;-67
2022/07/20 02:10:36;;;;;;;5.45;3.80;;;23.20;53.40;;;;;;5051431;28;20057;-67
2022/07/20 02:13:01;;;;;;;7.30;4.00;;;23.10;53.60;;;;;;5084465;28;20075;-67
2022/07/20 02:18:13;;;;;;;4.88;3.88;;;23.10;53.90;;;;;;5085076;28;20091;-66
2022/07/20 02:20:40;;;;;;;5.38;3.70;;;23.10;54.00;;;;;;5051191;28;20083;-66
2022/07/20 02:23:07;;;;;;;7.38;4.20;;;23.00;54.00;;;;;;5033869;28;20053;-65
2022/07/20 02:25:34;;;;;;;4.70;3.50;;;23.00;54.00;;;;;;5051044;28;20041;-66
2022/07/20 02:28:00;;;;;;;6.05;4.13;;;23.00;54.20;;;;;;5084459;28;20045;-66
2022/07/20 02:30:26;;;;;;;10.05;4.03;;;22.90;54.40;;;;;;5067770;28;20103;-66
2022/07/20 02:32:51;;;;;;;8.43;3.97;;;22.80;54.60;;;;;;5034263;28;20061;-66
2022/07/20 02:35:18;;;;;;;6.72;4.07;;;22.70;54.90;;;;;;5047016;28;20055;-66
2022/07/20 02:37:44;;;;;;;6.68;3.80;;;22.70;55.10;;;;;;5067584;28;20061;-65
2022/07/20 02:40:10;;;;;;;6.85;4.03;;;22.60;55.20;;;;;;5067506;28;20436;-65
2022/07/20 02:42:35;;;;;;;10.43;3.88;;;22.60;55.40;;;;;;5049983;28;20049;-67
2022/07/20 02:45:02;;;;;;;6.93;3.60;;;22.50;55.60;;;;;;5050613;28;20071;-67
2022/07/20 02:47:27;;;;;;;6.90;3.70;;;22.60;55.60;;;;;;5067309;28;20083;-66
2022/07/20 02:49:53;;;;;;;6.03;3.83;;;22.50;56.60;;;;;;5050829;28;20468;-66
2022/07/20 02:52:19;;;;;;;12.27;3.80;;;22.50;56.00;;;;;;5066951;28;20045;-66
2022/07/20 02:54:44;;;;;;;9.20;4.40;;;22.40;56.00;;;;;;5067216;28;20158;-66
2022/07/20 02:57:10;;;;;;;6.13;3.97;;;22.40;56.10;;;;;;5067177;28;20049;-66
2022/07/20 02:59:36;;;;;;;8.23;4.20;;;22.30;56.20;;;;;;5067617;28;20132;-66
2022/07/20 03:02:01;;;;;;;5.68;3.95;;;22.30;56.30;;;;;;5049894;28;20049;-66
2022/07/20 03:04:27;;;;;;;7.72;3.80;;;22.30;56.50;;;;;;5050590;28;20505;-66
2022/07/20 03:06:53;;;;;;;6.47;3.85;;;22.20;56.60;;;;;;5050380;28;20056;-68
2022/07/20 03:09:18;;;;;;;7.18;4.40;;;22.20;56.70;;;;;;5033923;28;20120;-67
2022/07/20 03:11:44;;;;;;;8.07;4.07;;;22.10;56.80;;;;;;5049825;28;20052;-67
2022/07/20 03:14:09;;;;;;;7.38;4.22;;;22.10;57.10;;;;;;5033610;28;20041;-66
2022/07/20 03:16:35;;;;;;;7.93;4.20;;;22.10;57.20;;;;;;5033811;28;20041;-66
2022/07/20 03:19:01;;;;;;;9.65;4.32;;;22.00;57.20;;;;;;5017232;28;20482;-66
2022/07/20 03:21:27;;;;;;;8.50;4.07;;;22.10;57.20;;;;;;5032601;28;20501;-68
2022/07/20 03:23:53;;;;;;;8.75;4.43;;;22.00;57.30;;;;;;5033044;28;20103;-66
2022/07/20 03:26:19;;;;;;;7.55;4.43;;;22.00;57.20;;;;;;5032679;28;20060;-66
2022/07/20 03:28:45;;;;;;;8.35;4.40;;;22.10;57.30;;;;;;5016589;28;20056;-67
2022/07/20 03:31:11;;;;;;;6.05;4.10;;;22.00;57.40;;;;;;5049370;28;20049;-65
2022/07/20 03:33:37;;;;;;;6.78;3.92;;;22.10;57.40;;;;;;5039986;28;20044;-66
2022/07/20 03:36:03;;;;;;;7.28;4.20;;;22.10;57.40;;;;;;5056498;28;20056;-65
2022/07/20 03:38:29;;;;;;;5.57;4.30;;;22.10;57.30;;;;;;5066782;28;20049;-66
2022/07/20 03:40:55;;;;;;;9.95;4.40;;;22.20;57.30;;;;;;5049574;28;20055;-66
2022/07/20 03:43:25;;;;;;;6.65;4.05;;;22.10;57.20;;;;;;5033765;28;20053;-68
2022/07/20 03:45:53;;;;;;;5.97;4.20;;;22.10;57.20;;;;;;5049916;28;20503;-66
2022/07/20 03:48:19;;;;;;;7.35;4.13;;;22.10;57.30;;;;;;5083662;28;20041;-66
2022/07/20 03:50:46;;;;;;;8.75;4.22;;;22.10;57.20;;;;;;5066766;28;20053;-66
2022/07/20 03:53:12;;;;;;;8.07;3.88;;;22.10;57.30;;;;;;5049499;28;20076;-66
2022/07/20 03:55:38;;;;;;;7.93;4.50;;;22.00;57.30;;;;;;5049778;28;20451;-69
2022/07/20 03:58:04;;;;;;;6.95;4.20;;;22.00;57.40;;;;;;5083525;28;20083;-66
2022/07/20 04:00:30;;;;;;;6.63;4.28;;;22.00;57.50;;;;;;5066495;28;20071;-66
2022/07/20 04:02:56;;;;;;;8.98;4.03;;;21.90;57.70;;;;;;5082618;28;20081;-67
2022/07/20 04:05:22;;;;;;;7.85;4.38;;;21.90;57.90;;;;;;5066603;28;20099;-66
2022/07/20 04:07:48;;;;;;;8.18;4.25;;;21.80;58.10;;;;;;5066742;28;20045;-66
2022/07/20 04:10:14;;;;;;;8.30;4.03;;;21.80;58.30;;;;;;5066263;28;20056;-66
2022/07/20 04:12:39;;;;;;;7.68;3.70;;;21.80;58.40;;;;;;5083188;28;20388;-66
2022/07/20 04:15:06;;;;;;;6.88;4.40;;;21.70;58.80;;;;;;5049996;28;20482;-66
2022/07/20 04:17:32;;;;;;;9.40;4.40;;;21.70;58.90;;;;;;5033121;28;20045;-67
2022/07/20 04:19:58;;;;;;;9.38;4.57;;;21.70;59.00;;;;;;5083262;28;20102;-66
2022/07/20 04:22:24;;;;;;;9.75;4.30;;;21.70;59.10;;;;;;5032485;28;20106;-67
2022/07/20 04:24:49;;;;;;;6.15;3.83;;;21.70;59.30;;;;;;5049573;28;20051;-66
2022/07/20 04:27:15;;;;;;;8.45;4.30;;;21.80;59.30;;;;;;5066472;28;20049;-66
2022/07/20 04:29:41;;;;;;;7.68;4.43;;;21.80;59.30;;;;;;5051737;28;20064;-66
2022/07/20 04:32:06;;;;;;;10.27;4.53;;;21.90;59.40;;;;;;5052917;28;20072;-65
2022/07/20 04:34:32;;;;;;;8.35;4.50;;;21.90;59.30;;;;;;5066612;28;20524;-66
2022/07/20 04:36:58;;;;;;;9.02;4.13;;;21.90;59.30;;;;;;5053116;28;20414;-67
2022/07/20 04:39:24;;;;;;;7.78;4.30;;;21.90;59.40;;;;;;5053012;28;20045;-68
2022/07/20 04:41:50;;;;;;;8.95;4.50;;;22.00;59.50;;;;;;5036001;28;20053;-67
2022/07/20 04:44:15;;;;;;;8.00;4.55;;;22.00;59.50;;;;;;5069765;28;20126;-67
2022/07/20 04:46:41;;;;;;;7.88;4.38;;;22.10;59.80;;;;;;5036535;28;20036;-66
2022/07/20 04:49:07;;;;;;;4.82;4.22;;;22.10;59.70;;;;;;5052967;28;20044;-66
2022/07/20 04:51:34;;;;;;;6.60;4.20;;;22.10;59.70;;;;;;5035924;28;20053;-65
2022/07/20 04:53:59;;;;;;;7.78;4.30;;;22.20;59.80;;;;;;5052406;28;20128;-67
2022/07/20 04:56:25;;;;;;;6.40;4.18;;;22.20;59.70;;;;;;5086520;28;20131;-67
2022/07/20 04:58:53;;;;;;;8.20;4.38;;;22.30;59.70;;;;;;5069514;28;20072;-66
2022/07/20 05:01:20;;;;;;;8.52;4.15;;;22.30;59.40;;;;;;5035601;28;20091;-66
2022/07/20 05:03:46;;;;;;;12.27;4.90;;;22.40;59.30;;;;;;5086360;28;20055;-66
2022/07/20 05:06:12;;;;;;;9.32;4.32;;;22.50;59.30;;;;;;5052408;28;20473;-66
2022/07/20 05:08:38;;;;;;;9.18;4.32;;;22.60;59.10;;;;;;5069215;28;20137;-70
2022/07/20 05:11:04;;;;;;;10.40;4.90;;;22.70;59.10;;;;;;5052506;28;20406;-69
2022/07/20 05:13:29;;;;;;;11.73;5.00;;;22.80;59.10;;;;;;5069315;28;20049;-67
2022/07/20 05:15:55;;;;;;;8.48;5.30;;;22.80;58.90;;;;;;5069189;28;20144;-66
2022/07/20 05:18:21;;;;;;;7.57;4.80;;;22.90;58.80;;;;;;5086019;28;20048;-66
2022/07/20 05:20:46;;;;;;;13.55;4.88;;;23.00;58.50;;;;;;5052272;28;20057;-67
2022/07/20 05:23:13;;;;;;;7.60;4.22;;;23.10;58.60;;;;;;5085039;28;20079;-66
2022/07/20 05:25:40;;;;;;;5.78;4.05;;;23.10;58.80;;;;;;5069150;28;20452;-65
2022/07/20 05:28:07;;;;;;;6.72;3.90;;;23.20;59.20;;;;;;5068918;28;20037;-66
2022/07/20 05:30:33;;;;;;;6.18;4.35;;;23.20;59.30;;;;;;5052314;28;20048;-66
2022/07/20 05:32:58;;;;;;;6.40;4.32;;;23.20;59.40;;;;;;5051175;28;20136;-67
2022/07/20 05:35:24;;;;;;;8.57;4.30;;;23.30;59.70;;;;;;5035573;28;20060;-67
2022/07/20 05:37:50;;;;;;;7.85;4.82;;;23.30;59.70;;;;;;5035324;28;20056;-67
2022/07/20 05:40:16;;;;;;;9.75;4.32;;;23.40;59.40;;;;;;5068775;28;20506;-67
2022/07/20 05:42:42;;;;;;;5.55;4.10;;;23.40;59.60;;;;;;5084819;28;20056;-66
2022/07/20 05:45:08;;;;;;;8.50;4.53;;;23.50;59.70;;;;;;5051959;28;20045;-69
2022/07/20 05:47:34;;;;;;;9.07;4.70;;;23.50;59.80;;;;;;5051873;28;20045;-66
2022/07/20 05:49:59;;;;;;;8.38;4.25;;;23.60;60.00;;;;;;5051764;28;20045;-66
2022/07/20 05:52:25;;;;;;;9.57;4.70;;;23.70;60.10;;;;;;5050875;28;20072;-66
2022/07/20 05:54:51;;;;;;;13.32;4.60;;;23.80;60.20;;;;;;5051735;28;20048;-66
2022/07/20 05:57:16;;;;;;;7.03;4.32;;;23.90;60.00;;;;;;5051388;28;20418;-68
2022/07/20 05:59:43;;;;;;;8.73;4.60;;;24.00;59.90;;;;;;5034980;28;20130;-66
2022/07/20 06:02:09;;;;;;;4.97;4.30;;;24.20;59.60;;;;;;5050955;28;20053;-66
2022/07/20 06:04:35;;;;;;;7.40;5.13;;;24.20;59.50;;;;;;5051640;28;20064;-66
2022/07/20 06:07:01;;;;;;;8.40;4.18;;;24.30;59.50;;;;;;5084735;28;20159;-66
2022/07/20 06:09:26;;;;;;;6.80;4.40;;;24.40;59.40;;;;;;5068082;28;20481;-66
2022/07/20 06:11:52;;;;;;;10.40;4.60;;;24.60;59.40;;;;;;5050898;28;20041;-69
2022/07/20 06:14:18;;;;;;;8.32;4.47;;;24.70;59.20;;;;;;5068005;28;20041;-66
2022/07/20 06:16:44;;;;;;;10.52;5.47;;;24.80;59.30;;;;;;5084839;28;20118;-67
2022/07/20 06:19:09;;;;;;;8.25;4.65;;;25.00;59.20;;;;;;5051417;28;20067;-66
2022/07/20 06:21:36;;;;;;;9.45;4.65;;;25.10;59.30;;;;;;5050517;28;20057;-67
2022/07/20 06:24:02;;;;;;;5.78;4.20;;;25.20;59.40;;;;;;5067724;28;20083;-66
2022/07/20 06:26:27;;;;;;;6.40;4.85;;;25.30;59.20;;;;;;5067671;28;20045;-66
2022/07/20 06:28:53;;;;;;;11.52;4.88;;;25.40;59.00;;;;;;5067804;28;20080;-67
2022/07/20 06:31:19;;;;;;;5.68;4.60;;;25.60;58.60;;;;;;5083946;28;20037;-70
2022/07/20 06:33:44;;;;;;;8.80;4.97;;;25.60;58.20;;;;;;5058357;28;20101;-67
2022/07/20 06:36:10;;;;;;;9.82;4.90;;;25.80;58.00;;;;;;5039644;28;20507;-67
2022/07/20 06:38:36;;;;;;;8.05;4.90;;;25.80;57.50;;;;;;5084437;28;20521;-67
2022/07/20 06:41:02;;;;;;;9.40;5.20;;;26.00;57.40;;;;;;5066961;28;20056;-67
2022/07/20 06:43:28;;;;;;;6.05;4.50;;;26.10;57.40;;;;;;5050971;28;20112;-66
2022/07/20 06:45:54;;;;;;;7.47;4.95;;;26.20;57.10;;;;;;5067399;28;20500;-65
2022/07/20 06:48:22;;;;;;;9.90;4.88;;;26.40;56.80;;;;;;5050764;28;20526;-67
2022/07/20 06:50:48;;;;;;;6.15;4.88;;;26.40;56.30;;;;;;5084050;28;20044;-66
2022/07/20 06:53:15;;;;;;;8.15;4.75;;;26.60;57.20;;;;;;5049763;28;20136;-66
2022/07/20 06:55:40;;;;;;;8.50;5.18;;;26.70;56.50;;;;;;5050421;28;20170;-67
2022/07/20 06:58:06;;;;;;;7.85;4.88;;;26.80;56.40;;;;;;5050749;28;20554;-66
2022/07/20 07:00:32;;;;;;;8.35;5.53;;;26.90;56.20;;;;;;5050374;28;20231;-66
2022/07/20 07:02:58;;;;;;;8.15;5.20;;;26.90;55.90;;;;;;5083270;28;20103;-68
2022/07/20 07:05:23;;;;;;;8.82;5.13;;;27.10;56.10;;;;;;5067055;28;20049;-66
2022/07/20 07:07:49;;;;;;;6.07;4.80;;;27.30;56.20;;;;;;5050356;28;20049;-66
2022/07/20 07:10:15;;;;;;;7.05;4.93;;;27.40;56.70;;;;;;5066965;28;20056;-66
2022/07/20 07:12:40;;;;;;;7.35;5.15;;;27.50;55.80;;;;;;5066706;28;20070;-66
2022/07/20 07:15:07;;;;;;;8.75;5.15;;;27.60;55.50;;;;;;5050512;28;20047;-67
2022/07/20 07:17:33;;;;;;;7.28;4.93;;;27.70;55.40;;;;;;5083905;28;20048;-66
2022/07/20 07:19:59;;;;;;;7.40;5.22;;;27.90;55.40;;;;;;5066755;28;20056;-66
2022/07/20 07:22:30;;;;;;;8.30;5.38;;;27.90;54.90;;;;;;5066273;28;20040;-67
2022/07/20 07:24:56;;;;;;;5.72;4.68;;;28.00;54.10;;;;;;5050099;28;20467;-67
2022/07/20 07:27:22;;;;;;;9.07;5.10;;;28.10;53.90;;;;;;5050500;28;20067;-67
2022/07/20 07:29:48;;;;;;;7.75;5.30;;;28.10;53.30;;;;;;5083770;28;20407;-67
2022/07/20 07:32:14;;;;;;;9.90;5.13;;;28.20;52.50;;;;;;5049097;28;20118;-67
2022/07/20 07:34:40;;;;;;;7.88;5.00;;;28.30;52.20;;;;;;5050214;28;20332;-66
2022/07/20 07:37:06;;;;;;;6.97;5.35;;;28.30;52.20;;;;;;5067046;28;20055;-66
2022/07/20 07:39:31;;;;;;;6.45;4.80;;;28.30;52.30;;;;;;5033635;28;20044;-66
2022/07/20 07:41:58;;;;;;;7.65;5.35;;;28.50;52.60;;;;;;5049458;28;20088;-66
2022/07/20 07:44:24;;;;;;;9.23;5.05;;;28.60;52.10;;;;;;5033352;28;20053;-68
2022/07/20 07:46:50;;;;;;;6.85;5.00;;;28.50;51.90;;;;;;5050008;28;20048;-67
2022/07/20 07:49:16;;;;;;;7.47;5.50;;;28.60;51.90;;;;;;5083817;28;20048;-66
2022/07/20 07:51:42;;;;;;;8.15;5.45;;;28.70;52.30;;;;;;5049711;28;20053;-66
2022/07/20 07:54:07;;;;;;;7.63;5.35;;;28.90;52.20;;;;;;5083694;28;20049;-69
2022/07/20 07:56:33;;;;;;;7.85;5.80;;;28.80;51.50;;;;;;5066863;28;20563;-67
2022/07/20 07:58:59;;;;;;;8.90;5.50;;;28.90;51.50;;;;;;5066490;28;20110;-67
2022/07/20 08:01:25;;;;;;;7.35;5.35;;;29.00;51.40;;;;;;5066182;28;20049;-69
2022/07/20 08:03:51;;;;;;;8.07;5.70;;;29.10;51.80;;;;;;5050898;28;20127;-67
2022/07/20 08:06:16;;;;;;;11.05;5.63;;;29.30;51.30;;;;;;5054001;28;20051;-67
2022/07/20 08:08:42;;;;;;;7.32;5.68;;;29.30;50.60;;;;;;5053803;28;20043;-66
2022/07/20 08:11:08;;;;;;;7.53;6.00;;;29.20;50.80;;;;;;5053395;28;20065;-69
2022/07/20 08:13:33;;;;;;;9.63;6.03;;;29.20;50.70;;;;;;5053317;28;20045;-66
2022/07/20 08:15:59;;;;;;;10.90;5.82;;;29.40;51.00;;;;;;5053569;28;20052;-66
2022/07/20 08:18:25;;;;;;;9.35;6.35;;;29.20;51.10;;;;;;5087110;28;20126;-67
2022/07/20 08:20:51;;;;;;;10.20;6.03;;;29.30;51.20;;;;;;5069922;28;20077;-66
2022/07/20 08:23:16;;;;;;;8.77;6.15;;;29.40;51.50;;;;;;5053385;28;20508;-66
2022/07/20 08:25:42;;;;;;;8.85;5.82;;;29.40;51.70;;;;;;5087182;28;20132;-68
2022/07/20 08:28:17;;;;;;;9.93;6.50;;;29.70;51.90;;;;;;5086972;28;20098;-69
2022/07/20 08:30:45;;;;;;;7.45;6.25;;;29.90;51.60;;;;;;5053070;28;20081;-69
2022/07/20 08:33:11;;;;;;;10.13;7.15;;;29.80;50.90;;;;;;5056363;28;20048;-67
2022/07/20 08:35:37;;;;;;;8.90;6.45;;;29.80;50.70;;;;;;5047119;28;20059;-67
2022/07/20 08:38:04;;;;;;;10.10;7.03;;;29.80;50.50;;;;;;5086928;28;20049;-66
2022/07/20 08:40:30;;;;;;;12.10;7.05;;;29.90;50.70;;;;;;5086815;28;20151;-67
2022/07/20 08:42:56;;;;;;;8.77;7.18;;;29.90;50.50;;;;;;5052227;28;20049;-67
2022/07/20 08:45:22;;;;;;;10.18;7.47;;;30.00;50.80;;;;;;5069581;28;20178;-68
2022/07/20 08:47:50;;;;;;;10.80;7.82;;;30.10;50.60;;;;;;5086670;28;20056;-69
2022/07/20 08:50:28;;;;;;;11.30;8.05;;;29.90;50.60;;;;;;5052792;28;20127;-68
2022/07/20 08:52:54;;;;;;;9.98;8.05;;;30.10;51.50;;;;;;5086068;28;20052;-66
2022/07/20 08:55:20;;;;;;;13.93;8.90;;;30.20;51.60;;;;;;5036374;28;20045;-67
2022/07/20 08:57:46;;;;;;;12.73;8.40;;;30.10;51.70;;;;;;5036027;28;20056;-69
2022/07/20 09:00:13;;;;;;;13.57;10.30;;;30.20;52.20;;;;;;5086610;28;20053;-66
2022/07/20 09:03:01;;;;;;;11.98;9.35;;;30.10;52.40;;;;;;5052192;28;20059;-68
2022/07/20 09:05:28;;;;;;;13.52;10.20;;;29.90;53.60;;;;;;5086324;28;20060;-66
2022/07/20 09:07:56;;;;;;;12.60;9.35;;;30.00;53.30;;;;;;5036050;28;20535;-67
2022/07/20 09:10:29;;;;;;;11.63;9.70;;;30.10;53.80;;;;;;5069164;28;20517;-67
2022/07/20 09:12:59;;;;;;;21.15;10.60;;;30.30;54.00;;;;;;5086100;28;20049;-68
2022/07/20 09:15:42;;;;;;;19.48;12.52;;;30.30;54.30;;;;;;5052211;28;20049;-67
2022/07/20 09:18:17;;;;;;;16.85;12.13;;;30.30;55.80;;;;;;5052454;28;20068;-69
2022/07/20 09:20:53;;;;;;;42.58;14.32;;;30.40;56.00;;;;;;5051801;28;20048;-67
2022/07/20 09:23:23;;;;;;;16.98;14.02;;;30.40;56.60;;;;;;5035343;28;20079;-67
2022/07/20 09:25:58;;;;;;;19.40;14.48;;;30.40;57.20;;;;;;5052485;28;20048;-66
2022/07/20 09:28:39;;;;;;;19.77;14.93;;;30.30;58.30;;;;;;5052266;28;20066;-66
2022/07/20 09:31:18;;;;;;;28.67;16.10;;;30.30;59.80;;;;;;5035104;28;20045;-67
2022/07/20 09:33:49;;;;;;;32.80;17.23;;;30.50;59.50;;;;;;5059672;28;20492;-67
2022/07/20 09:36:17;;;;;;;25.40;16.88;;;30.50;59.70;;;;;;5090191;28;20041;-68
2022/07/20 09:38:43;;;;;;;25.80;17.27;;;30.80;59.50;;;;;;5052122;28;20052;-67
2022/07/20 09:41:28;;;;;;;26.20;18.52;;;30.70;59.50;;;;;;5051378;28;20041;-69
2022/07/20 09:43:56;;;;;;;28.67;17.48;;;30.70;60.10;;;;;;5052276;28;20411;-68
2022/07/20 09:46:24;;;;;;;22.70;18.25;;;30.80;60.30;;;;;;5035470;28;20052;-68
2022/07/20 09:48:52;;;;;;;24.10;17.75;;;30.90;61.00;;;;;;5052027;28;20123;-67
2022/07/20 09:51:29;;;;;;;25.75;19.60;;;30.70;61.00;;;;;;5034890;28;20141;-68
2022/07/20 09:54:01;;;;;;;30.42;20.17;;;30.50;61.70;;;;;;5035082;28;20094;-67
2022/07/20 09:56:28;;;;;;;28.98;20.73;;;30.50;62.10;;;;;;5051922;28;20155;-67
2022/07/20 09:58:56;;;;;;;30.48;20.83;;;30.40;62.90;;;;;;5035091;28;20040;-67
2022/07/20 10:01:49;;;;;;;28.08;22.02;;;30.40;63.30;;;;;;5051196;28;20102;-67
2022/07/20 10:04:16;;;;;;;27.33;20.95;;;30.50;63.40;;;;;;5035008;28;20521;-67
2022/07/20 10:06:46;;;;;;;31.75;22.50;;;30.50;63.20;;;;;;5051706;28;20049;-67
2022/07/20 10:09:14;;;;;;;31.67;22.08;;;30.40;63.70;;;;;;5051528;28;20061;-67
2022/07/20 10:11:40;;;;;;;33.63;22.80;;;30.40;64.10;;;;;;5034853;28;20053;-67
2022/07/20 10:14:10;;;;;;;31.60;23.80;;;30.50;63.90;;;;;;5051588;28;20045;-67
2022/07/20 10:16:52;;;;;;;32.83;23.03;;;30.70;64.00;;;;;;5018747;28;20056;-67
2022/07/20 10:19:20;;;;;;;30.45;22.83;;;30.70;63.30;;;;;;5034858;28;20059;-68
2022/07/20 10:21:48;;;;;;;31.73;23.70;;;30.40;64.30;;;;;;5050736;28;20102;-67
2022/07/20 10:24:18;;;;;;;31.52;23.48;;;30.40;64.50;;;;;;5051308;28;20092;-68
2022/07/20 10:26:45;;;;;;;28.10;22.67;;;30.40;64.20;;;;;;5050460;28;20169;-66
2022/07/20 10:29:30;;;;;;;27.58;22.33;;;30.60;64.00;;;;;;5034511;28;20094;-67
2022/07/20 10:32:17;;;;;;;31.77;22.92;;;30.80;63.10;;;;;;5034098;28;20471;-67
2022/07/20 10:34:44;;;;;;;28.52;22.58;;;30.80;62.80;;;;;;5064497;28;20041;-67
2022/07/20 10:37:27;;;;;;;30.40;22.17;;;31.10;62.90;;;;;;5034336;28;20095;-69
2022/07/20 10:40:02;;;;;;;27.90;21.73;;;31.00;61.40;;;;;;5050745;28;20049;-69
2022/07/20 10:42:31;;;;;;;24.30;19.95;;;31.10;61.80;;;;;;5033582;28;20466;-68
2022/07/20 10:45:28;;;;;;;29.02;21.08;;;31.20;61.10;;;;;;5050931;28;20087;-68
2022/07/20 10:47:57;;;;;;;27.75;21.15;;;31.40;58.80;;;;;;5022037;28;20045;-67
2022/07/20 10:50:32;;;;;;;30.75;22.20;;;31.60;59.40;;;;;;5050645;28;20040;-68
2022/07/20 10:53:17;;;;;;;29.20;21.15;;;31.70;59.80;;;;;;5067461;28;20057;-68
2022/07/20 10:55:52;;;;;;;28.10;21.05;;;31.60;60.20;;;;;;5083666;28;20480;-67
2022/07/20 10:58:22;;;;;;;27.05;21.23;;;31.50;59.00;;;;;;5084213;28;20079;-68
2022/07/20 11:01:07;;;;;;;26.35;19.98;;;31.50;59.20;;;;;;5050122;28;20591;-68
2022/07/20 11:03:40;;;;;;;23.92;18.85;;;31.40;58.00;;;;;;5050414;28;20045;-67
2022/07/20 11:06:14;;;;;;;23.83;18.42;;;31.50;57.20;;;;;;5034152;28;20091;-70
2022/07/20 11:08:43;;;;;;;22.67;17.20;;;31.60;55.50;;;;;;5050445;28;20071;-67
2022/07/20 11:11:15;;;;;;;19.00;16.88;;;31.50;55.10;;;;;;5049929;28;20041;-69
2022/07/20 11:13:41;;;;;;;21.40;16.80;;;31.60;54.10;;;;;;5050203;28;20098;-68
2022/07/20 11:16:07;;;;;;;24.15;17.02;;;31.80;54.20;;;;;;5050712;28;20073;-67
2022/07/20 11:18:33;;;;;;;20.33;17.98;;;31.60;54.10;;;;;;5020475;28;20045;-67
2022/07/20 11:21:03;;;;;;;21.42;18.05;;;31.80;54.20;;;;;;5049888;28;20047;-67
2022/07/20 11:23:45;;;;;;;22.20;17.25;;;31.90;54.10;;;;;;5033334;28;20052;-67
2022/07/20 11:26:13;;;;;;;22.85;18.00;;;31.70;53.30;;;;;;5033539;28;20056;-68
2022/07/20 11:28:52;;;;;;;21.35;18.13;;;31.80;54.10;;;;;;5066912;28;20085;-67
2022/07/20 11:31:20;;;;;;;22.48;18.20;;;31.90;53.70;;;;;;5049825;28;20402;-67
2022/07/20 11:33:48;;;;;;;25.67;18.45;;;32.10;53.80;;;;;;5058053;28;20084;-70
2022/07/20 11:36:21;;;;;;;22.75;17.83;;;32.10;53.80;;;;;;5071652;28;20053;-67
2022/07/20 11:38:53;;;;;;;22.88;17.00;;;31.90;53.80;;;;;;5036066;28;20056;-67
2022/07/20 11:41:35;;;;;;;22.27;17.45;;;31.80;54.00;;;;;;5053806;28;20123;-67
2022/07/20 11:44:03;;;;;;;19.95;15.10;;;31.80;53.60;;;;;;5070896;28;20491;-67
2022/07/20 11:46:30;;;;;;;17.98;13.30;;;32.10;53.10;;;;;;5054061;28;20048;-67
2022/07/20 11:49:01;;;;;;;16.25;13.60;;;31.80;51.50;;;;;;5037922;28;20053;-67
2022/07/20 11:51:27;;;;;;;;;;;32.00;51.30;;;;;;5037557;28;20045;-69
2022/07/20 11:53:53;;;;;;;21.17;14.23;;;32.00;51.00;;;;;;5054033;28;19925;-71
2022/07/20 11:56:21;;;;;;;17.55;13.27;;;32.10;51.70;;;;;;5054170;28;20144;-67
2022/07/20 11:58:50;;;;;;;19.48;13.77;;;32.20;51.10;;;;;;5053865;28;20095;-68
2022/07/20 12:01:33;;;;;;;19.65;13.60;;;32.10;51.90;;;;;;5053390;28;20083;-68
2022/07/20 12:04:07;;;;;;;19.63;13.50;;;32.30;52.00;;;;;;5037228;28;20063;-67
2022/07/20 12:06:36;;;;;;;18.13;12.55;;;32.40;51.90;;;;;;5037321;28;20525;-69
2022/07/20 12:09:05;;;;;;;13.73;11.45;;;32.40;51.50;;;;;;5053626;28;20107;-67
2022/07/20 12:11:32;;;;;;;15.85;11.77;;;32.40;51.40;;;;;;5053262;28;20080;-67
2022/07/20 12:13:57;;;;;;;14.65;11.57;;;32.40;52.00;;;;;;5087505;28;20053;-67
2022/07/20 12:16:23;;;;;;;13.60;10.63;;;32.90;51.90;;;;;;5037199;28;20047;-69
2022/07/20 12:18:52;;;;;;;14.40;11.15;;;32.60;51.50;;;;;;5036989;28;20442;-67
2022/07/20 12:21:26;;;;;;;17.17;10.98;;;32.80;50.80;;;;;;5036522;28;20045;-67
2022/07/20 12:23:53;;;;;;;15.88;12.02;;;32.60;51.30;;;;;;5036744;28;20057;-67
2022/07/20 12:26:35;;;;;;;15.18;11.23;;;32.20;52.00;;;;;;5053638;28;20052;-67
2022/07/20 12:29:20;;;;;;;13.73;11.35;;;32.30;52.30;;;;;;5053639;28;20049;-67
2022/07/20 12:32:00;;;;;;;12.85;10.63;;;32.40;51.80;;;;;;5069508;28;20045;-68
2022/07/20 12:34:27;;;;;;;15.23;10.57;;;32.20;51.60;;;;;;5066780;28;20048;-67
2022/07/20 12:36:53;;;;;;;17.95;11.57;;;32.30;51.70;;;;;;5036710;28;20139;-67
2022/07/20 12:39:42;;;;;;;16.38;11.55;;;32.50;51.60;;;;;;5036703;28;20132;-67
2022/07/20 12:42:12;;;;;;;14.32;11.15;;;32.70;50.60;;;;;;5052724;28;20437;-70
2022/07/20 12:44:38;;;;;;;15.27;12.18;;;32.50;51.40;;;;;;5053113;28;20073;-70
2022/07/20 12:47:05;;;;;;;16.67;11.93;;;32.60;52.10;;;;;;5036512;28;20049;-68
2022/07/20 12:49:32;;;;;;;15.82;10.88;;;33.10;51.80;;;;;;5035788;28;20053;-68